createdAt,value
2023-02-02T00:00:09.310Z,102130.38
2023-02-02T00:02:36.681Z,102119.03
2023-02-02T00:05:04.297Z,102116.06
2023-02-02T00:12:07.834Z,102120.13
2023-02-02T00:14:35.038Z,102118.94
2023-02-02T00:17:05.050Z,102121.91
2023-02-02T00:19:32.440Z,102118.19
2023-02-02T00:21:59.677Z,102116.13
2023-02-02T00:24:26.915Z,102120.09
2023-02-02T00:26:55.694Z,102111.28
2023-02-02T00:29:24.670Z,102118.34
2023-02-02T00:31:52.287Z,102114.78
2023-02-02T00:34:21.567Z,102107.78
2023-02-02T00:36:49.664Z,102113.63
2023-02-02T00:39:26.791Z,102115.16
2023-02-02T00:41:54.471Z,102108.19
2023-02-02T00:44:40.748Z,102114.72
2023-02-02T00:47:07.880Z,102102.84
2023-02-02T00:49:36.352Z,102117.03
2023-02-02T00:52:03.332Z,102106.97
2023-02-02T00:54:30.559Z,102109.50
2023-02-02T00:56:57.605Z,102099.38
2023-02-02T00:59:24.681Z,102102.13
2023-02-02T01:01:52.045Z,102101.88
2023-02-02T01:04:19.115Z,102104.69
2023-02-02T01:06:47.653Z,102106.84
2023-02-02T01:09:14.617Z,102107.38
2023-02-02T01:11:44.783Z,102109.00
2023-02-02T01:14:11.915Z,102110.59
2023-02-02T01:16:40.724Z,102102.13
2023-02-02T01:19:07.774Z,102098.94
2023-02-02T01:21:35.098Z,102097.28
2023-02-02T01:24:04.817Z,102099.66
2023-02-02T01:26:31.943Z,102106.91
2023-02-02T01:28:59.017Z,102103.50
2023-02-02T01:31:26.447Z,102116.25
2023-02-02T01:33:53.708Z,102125.06
2023-02-02T01:36:23.407Z,102117.03
2023-02-02T01:38:50.981Z,102116.72
2023-02-02T01:41:21.907Z,102120.28
2023-02-02T01:43:55.061Z,102127.22
2023-02-02T01:46:23.959Z,102133.97
2023-02-02T01:48:56.990Z,102115.09
2023-02-02T01:51:27.768Z,102124.25
2023-02-02T01:53:58.134Z,102118.00
2023-02-02T01:56:30.900Z,102122.13
2023-02-02T01:58:59.020Z,102119.28
2023-02-02T02:01:26.840Z,102119.66
2023-02-02T02:03:55.006Z,102127.34
2023-02-02T02:06:23.134Z,102129.56
2023-02-02T02:08:53.801Z,102138.16
2023-02-02T02:11:22.169Z,102127.47
2023-02-02T02:14:11.623Z,102131.28
2023-02-02T02:16:53.086Z,102128.75
2023-02-02T02:20:04.876Z,102135.34
2023-02-02T02:23:07.122Z,102138.31
2023-02-02T02:26:17.773Z,102134.31
2023-02-02T02:29:18.382Z,102151.66
2023-02-02T02:32:01.357Z,102137.66
2023-02-02T02:34:44.277Z,102141.16
2023-02-02T02:37:16.787Z,102133.47
2023-02-02T02:39:50.887Z,102141.81
2023-02-02T02:42:22.940Z,102131.50
2023-02-02T02:44:50.833Z,102130.53
2023-02-02T02:47:20.421Z,102136.34
2023-02-02T02:49:49.114Z,102146.28
2023-02-02T02:52:16.412Z,102141.25
2023-02-02T02:54:49.912Z,102146.25
2023-02-02T02:57:34.638Z,102145.03
2023-02-02T03:00:09.269Z,102145.31
2023-02-02T03:02:48.031Z,102144.03
2023-02-02T03:05:27.136Z,102145.25
2023-02-02T03:08:02.621Z,102143.75
2023-02-02T03:10:31.656Z,102146.81
2023-02-02T03:12:58.996Z,102151.38
2023-02-02T03:15:26.282Z,102143.25
2023-02-02T03:17:54.987Z,102135.94
2023-02-02T03:20:22.195Z,102140.59
2023-02-02T03:22:49.134Z,102128.06
2023-02-02T03:25:16.727Z,102122.28
2023-02-02T03:27:44.163Z,102119.88
2023-02-02T03:30:13.435Z,102118.06
2023-02-02T03:32:41.542Z,102117.84
2023-02-02T03:35:10.748Z,102120.69
2023-02-02T03:37:37.878Z,102123.31
2023-02-02T03:40:06.286Z,102120.91
2023-02-02T03:42:33.340Z,102125.09
2023-02-02T03:45:00.527Z,102130.13
2023-02-02T03:47:29.684Z,102126.06
2023-02-02T03:49:56.902Z,102128.59
2023-02-02T03:52:25.832Z,102129.63
2023-02-02T03:54:52.905Z,102131.81
2023-02-02T03:57:20.109Z,102129.41
2023-02-02T03:59:47.163Z,102137.44
2023-02-02T04:02:14.148Z,102137.66
2023-02-02T04:04:41.029Z,102149.06
2023-02-02T04:07:08.052Z,102153.47
2023-02-02T04:09:36.537Z,102160.34
2023-02-02T04:12:03.462Z,102162.94
2023-02-02T04:14:30.460Z,102158.75
2023-02-02T04:16:57.494Z,102160.91
2023-02-02T04:19:24.619Z,102161.44
2023-02-02T04:21:51.824Z,102166.63
2023-02-02T04:24:18.824Z,102169.78
2023-02-02T04:26:47.384Z,102169.00
2023-02-02T04:29:14.574Z,102165.81
2023-02-02T04:31:41.682Z,102180.63
2023-02-02T04:34:08.848Z,102186.59
2023-02-02T04:36:35.867Z,102186.53
2023-02-02T04:39:02.941Z,102192.47
2023-02-02T04:41:30.001Z,102191.91
2023-02-02T04:43:58.471Z,102192.41
2023-02-02T04:46:26.709Z,102184.91
2023-02-02T04:48:54.578Z,102188.13
2023-02-02T04:51:22.041Z,102185.97
2023-02-02T04:53:49.322Z,102194.09
2023-02-02T04:56:18.168Z,102191.47
2023-02-02T04:58:45.840Z,102195.44
2023-02-02T05:01:31.051Z,102197.44
2023-02-02T05:03:58.431Z,102200.38
2023-02-02T05:06:27.932Z,102194.25
2023-02-02T05:08:55.527Z,102195.91
2023-02-02T05:11:23.749Z,102188.50
2023-02-02T05:13:53.765Z,102194.44
2023-02-02T05:16:22.113Z,102193.94
2023-02-02T05:18:52.695Z,102185.72
2023-02-02T05:24:06.222Z,102195.13
2023-02-02T05:34:54.881Z,102201.91
2023-02-02T05:37:21.960Z,102194.81
2023-02-02T05:51:37.651Z,102190.06
2023-02-02T05:56:46.080Z,102189.88
2023-02-02T05:59:13.372Z,102194.09
2023-02-02T06:04:22.073Z,102194.22
2023-02-02T06:18:48.757Z,102183.53
2023-02-02T06:21:17.248Z,102176.06
2023-02-02T06:23:46.044Z,102177.56
2023-02-02T06:26:13.860Z,102194.00
2023-02-02T06:28:41.114Z,102198.97
2023-02-02T06:31:10.318Z,102202.97
2023-02-02T06:33:37.544Z,102205.75
2023-02-02T06:44:11.472Z,102223.34
2023-02-02T07:00:53.407Z,102242.56
2023-02-02T07:03:45.012Z,102240.72
2023-02-02T07:12:19.490Z,102241.47
2023-02-02T07:20:34.180Z,102242.56
2023-02-02T07:23:33.389Z,102243.09
2023-02-02T07:26:01.869Z,102240.53
2023-02-02T07:28:31.038Z,102248.34
2023-02-02T07:30:58.390Z,102241.25
2023-02-02T07:33:25.567Z,102234.38
2023-02-02T07:35:53.133Z,102214.03
2023-02-02T07:38:20.322Z,102218.34
2023-02-02T07:40:47.456Z,102222.16
2023-02-02T07:43:14.492Z,102227.56
2023-02-02T07:45:50.176Z,102230.56
2023-02-02T07:48:17.416Z,102234.06
2023-02-02T07:50:44.419Z,102228.06
2023-02-02T07:53:11.469Z,102233.75
2023-02-02T07:55:38.559Z,102243.63
2023-02-02T07:58:07.863Z,102242.88
2023-02-02T08:00:34.951Z,102233.03
2023-02-02T08:03:03.411Z,102237.81
2023-02-02T08:05:30.359Z,102252.19
2023-02-02T08:07:57.490Z,102243.81
2023-02-02T08:10:24.377Z,102253.94
2023-02-02T08:12:51.410Z,102258.91
2023-02-02T08:15:18.343Z,102255.09
2023-02-02T08:17:46.535Z,102260.75
2023-02-02T08:23:03.576Z,102273.44
2023-02-02T08:25:30.509Z,102279.22
2023-02-02T08:28:01.516Z,102275.50
2023-02-02T08:30:28.930Z,102277.13
2023-02-02T08:32:55.833Z,102276.53
2023-02-02T08:35:22.943Z,102275.09
2023-02-02T08:37:50.118Z,102288.38
2023-02-02T08:40:19.043Z,102277.81
2023-02-02T08:42:47.664Z,102274.91
2023-02-02T08:46:13.025Z,102279.25
2023-02-02T08:48:11.346Z,102285.38
2023-02-02T08:50:39.220Z,102278.31
2023-02-02T08:53:06.324Z,102283.81
2023-02-02T08:55:34.616Z,102289.94
2023-02-02T08:58:01.576Z,102281.13
2023-02-02T09:00:28.450Z,102292.09
2023-02-02T09:02:55.422Z,102292.28
2023-02-02T09:05:22.503Z,102290.13
2023-02-02T09:08:14.434Z,102308.34
2023-02-02T09:10:43.039Z,102303.56
2023-02-02T09:13:09.953Z,102299.84
2023-02-02T09:29:57.483Z,102322.75
2023-02-02T09:32:24.478Z,102316.97
2023-02-02T09:34:51.450Z,102337.13
2023-02-02T09:37:18.390Z,102343.16
2023-02-02T09:39:45.307Z,102342.88
2023-02-02T09:50:23.940Z,102351.94
2023-02-02T09:52:56.514Z,102355.34
2023-02-02T09:55:30.263Z,102355.25
2023-02-02T09:58:04.475Z,102368.44
2023-02-02T10:00:34.689Z,102361.47
2023-02-02T10:03:07.654Z,102359.88
2023-02-02T10:05:47.628Z,102364.56
2023-02-02T10:08:34.026Z,102362.66
2023-02-02T10:11:13.337Z,102365.53
2023-02-02T10:13:43.818Z,102375.09
2023-02-02T10:16:17.416Z,102369.81
2023-02-02T10:18:50.278Z,102381.22
2023-02-02T10:21:26.991Z,102381.75
2023-02-02T10:23:54.867Z,102383.09
2023-02-02T10:26:23.404Z,102382.63
2023-02-02T10:29:03.436Z,102398.00
2023-02-02T10:31:40.663Z,102400.47
2023-02-02T10:34:15.391Z,102395.50
2023-02-02T10:36:56.267Z,102391.16
2023-02-02T10:39:34.563Z,102383.88
2023-02-02T10:42:12.093Z,102394.41
2023-02-02T10:44:48.433Z,102380.22
2023-02-02T10:47:24.050Z,102390.19
2023-02-02T10:50:01.263Z,102384.94
2023-02-02T10:52:33.777Z,102396.34
2023-02-02T10:55:05.855Z,102392.69
2023-02-02T11:04:40.218Z,102386.63
2023-02-02T11:07:07.583Z,102381.50
2023-02-02T11:09:42.516Z,102397.38
2023-02-02T11:12:20.759Z,102386.50
2023-02-02T11:14:52.640Z,102385.47
2023-02-02T11:19:58.543Z,102390.56
2023-02-02T11:37:14.238Z,102372.97
2023-02-02T11:39:42.056Z,102373.44
2023-02-02T11:42:16.161Z,102374.25
2023-02-02T12:43:42.310Z,102345.19
2023-02-02T12:57:30.217Z,102330.72
2023-02-02T13:00:24.304Z,102335.03
2023-02-02T13:03:05.395Z,102339.00
2023-02-02T13:11:39.411Z,102350.94
2023-02-02T13:20:04.651Z,102340.03
2023-02-02T13:34:21.335Z,102347.16
2023-02-02T13:39:43.206Z,102348.78
2023-02-02T13:42:21.749Z,102351.59
2023-02-02T13:48:16.301Z,102347.28
2023-02-02T13:50:52.113Z,102333.41
2023-02-02T14:21:32.498Z,102344.31
2023-02-02T15:18:28.595Z,102354.56
2023-02-02T15:48:30.237Z,102383.97
2023-02-02T15:53:48.931Z,102378.50
2023-02-02T16:02:38.973Z,102384.84
2023-02-02T16:13:40.528Z,102382.28
2023-02-02T16:16:23.389Z,102378.03
2023-02-02T16:21:44.335Z,102387.09
2023-02-02T16:39:35.676Z,102386.03
2023-02-02T16:47:36.201Z,102385.31
2023-02-02T16:50:04.584Z,102381.75
2023-02-02T16:52:32.543Z,102387.91
2023-02-02T17:00:37.681Z,102399.97
2023-02-02T17:06:09.071Z,102399.56
2023-02-02T17:08:38.587Z,102407.41
2023-02-02T17:32:06.274Z,102414.13
2023-02-02T17:37:07.081Z,102414.22
2023-02-02T17:39:34.054Z,102414.03
2023-02-02T17:42:01.024Z,102408.53
2023-02-02T17:44:28.155Z,102410.09
2023-02-02T17:46:55.189Z,102405.25
2023-02-02T17:49:24.502Z,102405.22
2023-02-02T17:51:51.515Z,102406.16
2023-02-02T17:54:18.594Z,102416.41
2023-02-02T17:56:47.290Z,102412.19
2023-02-02T17:59:14.283Z,102417.63
2023-02-02T18:01:44.355Z,102417.34
2023-02-02T18:06:48.016Z,102422.69
2023-02-02T18:09:15.010Z,102414.00
2023-02-02T18:11:42.637Z,102413.84
2023-02-02T18:34:08.865Z,102426.22
2023-02-02T18:36:36.622Z,102421.59
2023-02-02T18:39:03.668Z,102415.78
2023-02-02T18:41:31.286Z,102420.75
2023-02-02T18:43:58.354Z,102417.47
2023-02-02T18:46:27.063Z,102423.66
2023-02-02T18:51:36.842Z,102427.41
2023-02-02T18:57:24.693Z,102422.34
2023-02-02T19:02:47.271Z,102415.78
2023-02-02T19:05:32.924Z,102424.88
2023-02-02T19:08:03.592Z,102431.25
2023-02-02T19:10:30.735Z,102427.88
2023-02-02T19:13:03.620Z,102427.88
2023-02-02T19:15:33.029Z,102427.50
2023-02-02T19:18:02.374Z,102428.06
2023-02-02T19:20:30.633Z,102425.28
2023-02-02T19:23:07.386Z,102418.06
2023-02-02T19:25:34.542Z,102413.34
2023-02-02T19:28:09.232Z,102413.19
2023-02-02T19:30:36.389Z,102415.03
2023-02-02T19:33:11.265Z,102414.09
2023-02-02T19:35:39.359Z,102409.75
2023-02-02T19:38:13.399Z,102406.41
2023-02-02T19:40:41.920Z,102404.56
2023-02-02T19:43:25.320Z,102403.28
2023-02-02T19:45:52.843Z,102407.00
2023-02-02T19:48:23.622Z,102408.88
2023-02-02T19:50:50.678Z,102403.72
2023-02-02T19:53:23.367Z,102414.94
2023-02-02T19:55:51.326Z,102421.69
2023-02-02T19:58:21.509Z,102416.72
2023-02-02T20:00:50.567Z,102422.44
2023-02-02T20:03:20.459Z,102407.63
2023-02-02T20:05:49.191Z,102418.75
2023-02-02T20:08:24.330Z,102413.66
2023-02-02T20:10:53.087Z,102417.56
2023-02-02T20:13:22.165Z,102424.22
2023-02-02T20:15:50.619Z,102419.94
2023-02-02T20:18:21.179Z,102419.00
2023-02-02T20:20:51.730Z,102416.34
2023-02-02T20:23:30.244Z,102427.22
2023-02-02T20:25:58.780Z,102430.19
2023-02-02T20:31:07.045Z,102442.53
2023-02-02T20:33:34.331Z,102437.78
2023-02-02T20:36:02.770Z,102443.28
2023-02-02T20:38:39.269Z,102446.84
2023-02-02T20:41:06.958Z,102443.25
2023-02-02T20:43:36.002Z,102455.56
2023-02-02T20:46:03.580Z,102440.69
2023-02-02T20:48:30.711Z,102443.81
2023-02-02T20:50:57.834Z,102442.97
2023-02-02T20:53:25.123Z,102460.78
2023-02-02T20:55:58.193Z,102449.28
2023-02-02T20:58:25.439Z,102457.59
2023-02-02T21:00:52.544Z,102459.88
2023-02-02T21:03:20.324Z,102467.16
2023-02-02T21:05:47.507Z,102458.34
2023-02-02T21:08:14.521Z,102462.38
2023-02-02T21:10:41.575Z,102468.72
2023-02-02T21:13:10.131Z,102449.53
2023-02-02T21:15:37.219Z,102455.97
2023-02-02T21:18:04.457Z,102468.63
2023-02-02T21:20:31.773Z,102466.81
2023-02-02T21:22:58.788Z,102469.13
2023-02-02T21:25:25.833Z,102480.44
2023-02-02T21:27:53.003Z,102479.72
2023-02-02T21:30:21.681Z,102475.88
2023-02-02T21:32:48.654Z,102484.19
2023-02-02T21:35:15.893Z,102483.34
2023-02-02T21:37:44.313Z,102493.75
2023-02-02T21:40:14.833Z,102496.31
2023-02-02T21:42:45.389Z,102495.19
2023-02-02T21:45:32.246Z,102496.69
2023-02-02T21:48:01.486Z,102487.59
2023-02-02T21:50:31.785Z,102494.97
